createdAt,value
2018-08-10T00:09:02.302Z,77.98
2018-08-10T04:30:44.367Z,83.54
2018-08-10T04:31:33.718Z,83.26
2018-08-10T04:32:38.350Z,83.36
2018-08-10T04:33:34.336Z,83.64
2018-08-10T04:34:33.778Z,82.97
2018-08-10T04:35:33.859Z,82.49
2018-08-10T04:36:34.367Z,82.68
2018-08-10T04:37:33.763Z,82.68
2018-08-10T04:38:33.680Z,82.97
2018-08-10T04:39:33.703Z,83.26
2018-08-10T04:40:40.352Z,83.16
2018-08-10T04:41:33.601Z,83.16
2018-08-10T04:42:33.585Z,83.16
2018-08-10T04:43:33.571Z,83.16
2018-08-10T04:47:01.148Z,83.26
2018-08-10T04:47:59.606Z,82.87
2018-08-10T04:48:57.968Z,82.78
2018-08-10T04:50:07.986Z,83.26
2018-08-10T04:51:08.693Z,82.68
2018-08-10T04:57:35.837Z,83.45
2018-08-10T05:00:08.318Z,82.68
2018-08-10T05:01:06.573Z,82.59
2018-08-10T05:02:06.582Z,82.49
2018-08-10T05:03:11.133Z,82.40
2018-08-10T05:04:06.580Z,82.40
2018-08-10T05:05:06.558Z,82.59
2018-08-10T05:06:07.159Z,82.49
2018-08-10T05:07:11.125Z,82.68
2018-08-10T05:10:40.613Z,81.73
2018-08-10T05:11:37.644Z,81.73
2018-08-10T05:12:37.624Z,82.01
2018-08-10T05:13:37.708Z,81.92
2018-08-10T05:14:37.599Z,81.82
2018-08-10T05:15:37.634Z,81.82
2018-08-10T05:16:48.607Z,81.73
2018-08-10T05:17:37.629Z,81.25
2018-08-10T05:18:37.527Z,81.25
2018-08-10T05:19:37.630Z,81.44
2018-08-10T05:20:38.069Z,81.63
2018-08-10T05:21:37.513Z,80.96
2018-08-10T05:22:38.102Z,81.15
2018-08-10T05:23:37.480Z,81.25
2018-08-10T05:24:37.512Z,81.25
2018-08-10T05:25:37.458Z,81.15
2018-08-10T05:26:37.469Z,80.48
2018-08-10T05:27:40.335Z,81.15
2018-08-10T05:28:42.285Z,81.15
2018-08-10T05:29:37.646Z,81.15
2018-08-10T05:30:37.398Z,81.05
2018-08-10T05:31:42.090Z,80.77
2018-08-10T05:32:37.382Z,80.58
2018-08-10T05:33:37.383Z,80.87
2018-08-10T05:34:37.355Z,80.00
2018-08-10T05:35:38.485Z,80.10
2018-08-10T05:36:37.336Z,80.29
2018-08-10T05:37:37.712Z,80.48
2018-08-10T05:39:25.913Z,80.87
2018-08-10T05:39:44.159Z,80.77
2018-08-10T05:40:37.322Z,80.48
2018-08-10T05:41:37.260Z,80.77
2018-08-10T05:42:39.145Z,81.15
2018-08-10T05:43:38.185Z,80.58
2018-08-10T05:48:19.145Z,81.05
2018-08-10T05:49:18.351Z,80.77
2018-08-10T05:50:19.086Z,80.77
2018-08-10T05:51:18.118Z,80.67
2018-08-10T05:52:20.590Z,80.87
2018-08-10T05:53:18.370Z,81.15
2018-08-10T05:54:18.594Z,80.96
2018-08-10T05:55:18.025Z,81.34
2018-08-10T05:56:18.136Z,81.25
2018-08-10T05:57:18.006Z,81.44
2018-08-10T05:58:17.988Z,81.15
2018-08-10T05:59:17.976Z,81.25
2018-08-10T06:00:17.953Z,81.34
2018-08-10T06:01:18.016Z,80.77
2018-08-10T06:02:18.011Z,80.58
2018-08-10T06:09:58.213Z,81.25
2018-08-10T06:10:37.968Z,81.25
2018-08-10T06:11:37.963Z,81.54
2018-08-10T06:12:37.955Z,80.96
2018-08-10T06:13:37.982Z,81.25
2018-08-10T06:14:37.918Z,81.15
2018-08-10T06:15:38.193Z,80.67
2018-08-10T06:16:38.349Z,81.15
2018-08-10T06:17:44.682Z,81.15
2018-08-10T06:18:40.601Z,80.77
2018-08-10T06:19:41.422Z,81.15
2018-08-10T06:20:37.850Z,81.15
2018-08-10T06:21:37.956Z,80.96
2018-08-10T06:22:37.836Z,80.48
2018-08-10T06:23:40.595Z,80.29
2018-08-10T06:24:37.822Z,80.87
2018-08-10T06:25:38.064Z,80.71
2018-08-10T06:26:47.646Z,80.48
2018-08-10T06:27:39.725Z,80.90
2018-08-10T06:28:37.783Z,80.77
2018-08-10T06:29:37.757Z,80.19
2018-08-10T06:32:36.976Z,80.19
2018-08-10T06:33:36.421Z,80.81
2018-08-10T06:34:40.990Z,80.29
2018-08-10T06:35:40.994Z,80.90
2018-08-10T06:36:51.343Z,80.33
2018-08-10T06:37:38.020Z,79.95
2018-08-10T06:38:36.420Z,79.75
2018-08-10T06:39:36.358Z,80.24
2018-08-10T06:40:36.526Z,80.14
2018-08-10T06:41:36.341Z,80.24
2018-08-10T06:42:40.604Z,79.95
2018-08-10T06:43:36.613Z,79.75
2018-08-10T06:44:36.319Z,79.85
2018-08-10T06:46:19.524Z,79.75
2018-08-10T06:46:36.414Z,79.37
2018-08-10T06:47:36.313Z,78.99
2018-08-10T06:48:37.036Z,79.18
2018-08-10T06:50:00.047Z,79.37
2018-08-10T06:52:39.947Z,78.99
2018-08-10T06:53:27.482Z,79.37
2018-08-10T06:54:27.428Z,78.89
2018-08-10T06:55:28.963Z,78.70
2018-08-10T06:56:27.401Z,78.70
2018-08-10T06:57:27.942Z,78.03
2018-08-10T06:58:27.416Z,78.61
2018-08-10T06:59:32.471Z,78.22
2018-08-10T07:00:27.370Z,77.75
2018-08-10T07:01:27.411Z,77.46
2018-08-10T07:02:27.372Z,77.55
2018-08-10T07:03:27.485Z,77.55
2018-08-10T07:04:27.328Z,77.55
2018-08-10T07:05:27.302Z,76.98
2018-08-10T07:06:27.291Z,77.08
2018-08-10T07:07:27.318Z,77.17
2018-08-10T07:08:27.270Z,76.92
2018-08-10T07:09:27.293Z,77.78
2018-08-10T07:10:27.270Z,77.31
2018-08-10T07:11:28.057Z,76.92
2018-08-10T07:12:27.220Z,77.69
2018-08-10T07:18:03.023Z,75.20
2018-08-10T07:19:01.944Z,75.20
2018-08-10T07:20:00.277Z,75.39
2018-08-10T07:21:03.228Z,75.29
2018-08-10T07:22:00.222Z,75.39
2018-08-10T07:23:00.961Z,76.15
2018-08-10T07:24:00.190Z,75.39
2018-08-10T07:25:00.367Z,75.20
2018-08-10T07:26:00.253Z,74.91
2018-08-10T07:27:00.431Z,74.72
2018-08-10T07:28:00.163Z,75.48
2018-08-10T07:29:00.610Z,75.10
2018-08-10T07:30:00.138Z,75.58
2018-08-10T07:31:00.989Z,75.71
2018-08-10T07:32:00.965Z,75.81
2018-08-10T07:44:44.103Z,72.64
2018-08-10T07:52:11.683Z,73.51
2018-08-10T07:53:06.327Z,72.45
2018-08-10T07:54:05.925Z,72.55
2018-08-10T07:55:00.438Z,72.55
2018-08-10T07:58:25.784Z,69.68
2018-08-10T07:59:10.240Z,70.25
2018-08-10T08:00:10.894Z,70.83
2018-08-10T08:01:11.888Z,71.05
2018-08-10T08:02:10.361Z,70.67
2018-08-10T08:06:58.618Z,71.82
2018-08-10T08:07:45.687Z,70.96
2018-08-10T08:09:14.666Z,70.00
2018-08-10T08:09:43.703Z,69.71
2018-08-10T08:23:23.522Z,68.27
2018-08-10T08:24:23.475Z,68.79
2018-08-10T08:39:29.176Z,68.05
2018-08-10T08:39:30.628Z,68.24
2018-08-10T08:56:51.487Z,64.69
2018-08-10T08:57:53.051Z,64.40
2018-08-10T08:58:44.351Z,64.89
2018-08-10T09:01:40.660Z,63.54
2018-08-10T09:17:16.282Z,62.55
2018-08-10T09:18:16.187Z,61.78
2018-08-10T09:25:32.443Z,60.27
2018-08-10T09:26:32.894Z,60.46
2018-08-10T09:28:37.426Z,60.39
2018-08-10T09:30:53.015Z,59.92
2018-08-10T09:31:15.018Z,59.63
2018-08-10T09:35:45.354Z,58.95
2018-08-10T09:38:52.644Z,57.73
2018-08-10T09:39:33.630Z,57.57
2018-08-10T09:40:45.493Z,57.21
2018-08-10T09:41:30.619Z,55.67
2018-08-10T09:42:31.590Z,54.74
2018-08-10T09:43:30.605Z,53.19
2018-08-10T09:44:31.633Z,52.97
2018-08-10T09:45:32.200Z,53.23
2018-08-10T09:46:31.582Z,53.53
2018-08-10T09:47:31.752Z,55.74
2018-08-10T09:49:18.577Z,55.93
2018-08-10T09:49:30.609Z,55.55
2018-08-10T09:50:31.615Z,54.00
2018-08-10T09:51:31.652Z,52.95
2018-08-10T09:52:39.074Z,53.81
2018-08-10T09:56:09.777Z,51.17
2018-08-10T09:59:19.374Z,51.80
2018-08-10T10:00:18.582Z,50.06
2018-08-10T10:01:29.319Z,49.84
2018-08-10T10:02:18.585Z,50.23
2018-08-10T10:03:18.609Z,49.84
2018-08-10T10:04:19.625Z,49.63
2018-08-10T10:05:18.574Z,51.17
2018-08-10T10:06:18.583Z,50.27
2018-08-10T10:07:21.354Z,51.05
2018-08-10T10:08:36.410Z,51.92
2018-08-10T10:09:29.401Z,50.88
2018-08-10T10:10:18.542Z,52.16
2018-08-10T10:11:51.664Z,50.45
2018-08-10T10:12:18.547Z,49.39
2018-08-10T10:13:19.389Z,50.47
2018-08-10T10:14:18.572Z,49.22
2018-08-10T10:15:18.557Z,48.93
2018-08-10T10:16:27.938Z,48.06
2018-08-10T10:17:18.553Z,47.80
2018-08-10T10:18:26.980Z,47.99
2018-08-10T10:19:25.502Z,47.60
2018-08-10T10:20:18.528Z,46.83
2018-08-10T10:21:18.521Z,47.22
2018-08-10T10:22:18.516Z,46.92
2018-08-10T10:26:11.876Z,49.58
2018-08-10T10:26:54.991Z,46.80
2018-08-10T10:27:54.213Z,45.35
2018-08-10T10:29:08.913Z,44.98
2018-08-10T10:29:54.106Z,45.08
2018-08-10T10:30:54.390Z,42.76
2018-08-10T10:31:54.128Z,43.32
2018-08-10T10:32:54.198Z,43.20
2018-08-10T10:33:56.887Z,44.36
2018-08-10T10:34:54.112Z,44.63
2018-08-10T10:35:54.167Z,45.21
2018-08-10T10:37:55.769Z,45.59
2018-08-10T10:37:58.916Z,45.89
2018-08-10T10:38:57.306Z,44.92
2018-08-10T10:39:56.329Z,44.53
2018-08-10T10:40:56.506Z,45.01
2018-08-10T10:42:01.306Z,44.80
2018-08-10T10:42:56.285Z,45.57
2018-08-10T10:43:57.919Z,45.96
2018-08-10T10:46:46.706Z,47.99
2018-08-10T10:47:45.162Z,47.12
2018-08-10T10:49:07.288Z,46.81
2018-08-10T10:49:45.397Z,47.38
2018-08-10T10:50:44.273Z,49.02
2018-08-10T10:51:44.363Z,47.65
2018-08-10T10:54:26.447Z,46.88
2018-08-10T10:55:31.948Z,47.17
2018-08-10T10:56:25.395Z,47.14
2018-08-10T10:57:25.374Z,47.72
2018-08-10T10:58:25.699Z,47.05
2018-08-10T10:59:25.447Z,47.31
2018-08-10T11:00:25.355Z,47.89
2018-08-10T11:01:30.058Z,48.86
2018-08-10T11:02:28.475Z,47.99
2018-08-10T11:03:33.024Z,48.18
2018-08-10T11:07:17.998Z,49.43
2018-08-10T11:10:19.247Z,46.64
2018-08-10T11:11:17.850Z,45.48
2018-08-10T11:12:18.751Z,45.75
2018-08-10T11:13:17.831Z,45.17
2018-08-10T11:14:17.837Z,46.33
2018-08-10T11:15:18.762Z,46.11
2018-08-10T11:16:17.828Z,46.40
2018-08-10T11:17:50.205Z,47.36
2018-08-10T11:18:58.794Z,47.75
2018-08-10T11:19:17.788Z,48.35
2018-08-10T11:20:32.293Z,48.83
2018-08-10T11:21:19.302Z,49.79
2018-08-10T11:22:17.887Z,50.09
2018-08-10T11:23:19.624Z,49.99
2018-08-10T11:32:49.238Z,48.38
2018-08-10T11:33:51.720Z,48.57
2018-08-10T11:34:49.779Z,48.38
2018-08-10T11:36:01.814Z,49.24
2018-08-10T11:40:56.141Z,49.91
2018-08-10T11:45:16.328Z,49.34
2018-08-10T11:45:53.631Z,47.99
2018-08-10T11:47:07.666Z,47.89
2018-08-10T11:47:53.682Z,48.18
2018-08-10T11:52:17.814Z,49.17
2018-08-10T11:53:19.688Z,47.70
2018-08-10T12:01:07.025Z,48.21
2018-08-10T12:01:25.497Z,47.94
2018-08-10T12:02:23.111Z,47.85
2018-08-10T12:04:03.402Z,46.20
2018-08-10T12:04:24.530Z,46.20
2018-08-10T12:07:58.213Z,46.40
2018-08-10T12:24:04.665Z,42.52
2018-08-10T12:25:04.920Z,42.49
2018-08-10T12:26:04.099Z,42.79
2018-08-10T12:27:04.645Z,42.30
2018-08-10T12:28:05.123Z,42.59
2018-08-10T12:29:05.167Z,43.37
2018-08-10T12:30:04.968Z,44.32
2018-08-10T12:31:05.431Z,44.90
2018-08-10T12:32:04.709Z,44.81
2018-08-10T12:33:04.074Z,44.52
2018-08-10T12:36:04.715Z,44.23
2018-08-10T12:36:47.431Z,44.71
2018-08-10T12:38:39.442Z,44.62
2018-08-10T12:38:47.404Z,44.71
2018-08-10T12:41:35.434Z,44.32
2018-08-10T12:42:34.895Z,45.12
2018-08-10T12:43:33.885Z,44.35
2018-08-10T12:44:33.221Z,43.19
2018-08-10T12:45:33.448Z,43.19
2018-08-10T12:50:05.327Z,43.77
2018-08-10T12:51:05.948Z,43.87
2018-08-10T12:52:15.933Z,42.90
2018-08-10T12:54:32.296Z,42.90
2018-08-10T12:54:50.566Z,42.73
2018-08-10T12:55:34.947Z,44.37
2018-08-10T12:56:35.708Z,43.12
2018-08-10T12:57:32.808Z,41.09
2018-08-10T12:58:32.974Z,42.15
2018-08-10T12:59:33.482Z,41.86
2018-08-10T13:00:33.807Z,42.63
2018-08-10T13:01:32.977Z,42.05
2018-08-10T13:02:33.185Z,43.02
2018-08-10T13:03:33.507Z,41.96
2018-08-10T13:04:32.779Z,43.31
2018-08-10T13:07:48.733Z,44.76
2018-08-10T13:08:23.752Z,43.60
2018-08-10T13:09:23.756Z,42.73
2018-08-10T13:19:40.013Z,39.95
2018-08-10T13:20:32.057Z,39.76
2018-08-10T13:21:32.492Z,39.57
2018-08-10T13:22:34.023Z,41.40
2018-08-10T13:23:32.050Z,39.57
2018-08-10T13:24:31.349Z,39.09
2018-08-10T13:25:31.398Z,38.51
2018-08-10T13:26:32.069Z,38.51
2018-08-10T13:27:31.380Z,37.83
2018-08-10T13:28:34.070Z,39.18
2018-08-10T13:29:32.033Z,39.76
2018-08-10T13:30:31.302Z,39.28
2018-08-10T13:31:31.320Z,39.57
2018-08-10T13:32:31.286Z,38.02
2018-08-10T13:33:31.294Z,38.60
2018-08-10T13:34:31.266Z,38.62
2018-08-10T13:35:32.095Z,38.62
2018-08-10T13:36:31.281Z,38.23
2018-08-10T13:39:51.966Z,37.35
2018-08-10T13:44:51.846Z,37.35
2018-08-10T13:45:54.302Z,37.35
2018-08-10T13:46:58.303Z,36.69
2018-08-10T13:47:51.555Z,36.59
2018-08-10T13:48:52.685Z,36.21
2018-08-10T13:49:52.486Z,37.65
2018-08-10T13:50:54.239Z,36.50
2018-08-10T13:51:52.346Z,36.11
2018-08-10T13:52:51.869Z,35.74
2018-08-10T13:54:06.318Z,35.26
2018-08-10T13:54:53.301Z,36.03
2018-08-10T13:55:53.329Z,35.06
2018-08-10T13:56:51.459Z,34.29
2018-08-10T13:57:51.455Z,34.48
2018-08-10T13:58:51.455Z,34.58
2018-08-10T13:59:51.427Z,33.14
2018-08-10T14:00:52.331Z,32.56
2018-08-10T14:01:51.479Z,30.14
2018-08-10T14:02:52.324Z,31.01
2018-08-10T14:03:56.337Z,30.62
2018-08-10T14:04:52.386Z,30.33
2018-08-10T14:05:52.389Z,30.82
2018-08-10T14:06:52.402Z,31.78
2018-08-10T14:07:52.358Z,31.20
2018-08-10T14:08:51.416Z,31.20
2018-08-10T14:09:54.330Z,31.60
2018-08-10T14:10:51.638Z,32.18
2018-08-10T14:11:57.171Z,31.99
2018-08-10T14:13:17.381Z,32.28
2018-08-10T14:13:52.410Z,31.60
2018-08-10T14:14:54.354Z,32.97
2018-08-10T14:18:13.068Z,31.62
2018-08-10T14:19:11.537Z,30.83
2018-08-10T14:20:11.502Z,31.70
2018-08-10T14:21:11.488Z,32.76
2018-08-10T14:22:22.302Z,32.86
2018-08-10T14:23:11.587Z,34.60
2018-08-10T14:24:12.490Z,34.21
2018-08-10T14:25:11.493Z,32.47
2018-08-10T14:26:12.602Z,31.51
2018-08-10T14:27:11.459Z,31.22
2018-08-10T14:28:11.479Z,30.44
2018-08-10T14:29:11.466Z,31.22
2018-08-10T14:30:11.528Z,30.62
2018-08-10T14:31:11.438Z,31.12
2018-08-10T14:32:11.434Z,30.62
2018-08-10T14:33:11.425Z,31.22
2018-08-10T14:34:12.558Z,31.80
2018-08-10T14:35:12.055Z,32.86
2018-08-10T14:36:11.661Z,31.89
2018-08-10T14:37:13.059Z,32.39
2018-08-10T14:38:20.575Z,32.38
2018-08-10T14:39:12.251Z,31.91
2018-08-10T14:40:28.112Z,32.67
2018-08-10T14:41:11.443Z,32.39
2018-08-10T14:42:12.601Z,32.68
2018-08-10T14:43:11.502Z,32.29
2018-08-10T14:44:11.426Z,32.18
2018-08-10T14:45:11.382Z,32.47
2018-08-10T14:46:11.376Z,32.67
2018-08-10T14:47:11.431Z,32.38
2018-08-10T14:48:12.164Z,31.51
2018-08-10T14:49:12.566Z,30.83
2018-08-10T14:50:11.428Z,32.68
2018-08-10T14:51:11.360Z,31.71
2018-08-10T14:52:11.344Z,30.73
2018-08-10T14:53:11.444Z,31.22
2018-08-10T14:54:15.868Z,31.22
2018-08-10T14:59:13.778Z,32.29
2018-08-10T15:00:18.762Z,32.78
2018-08-10T15:01:15.584Z,32.87
2018-08-10T15:02:14.409Z,31.22
2018-08-10T15:03:13.759Z,31.12
2018-08-10T15:06:38.629Z,32.26
2018-08-10T15:07:51.698Z,33.04
2018-08-10T15:08:50.444Z,33.52
2018-08-10T15:15:49.011Z,32.46
2018-08-10T15:16:48.149Z,32.84
2018-08-10T15:17:48.954Z,32.84
2018-08-10T15:18:48.894Z,32.76
2018-08-10T15:29:04.476Z,31.13
2018-08-10T15:38:51.052Z,31.12
2018-08-10T15:39:39.500Z,30.83
2018-08-10T15:43:29.579Z,31.99
2018-08-10T15:47:48.048Z,29.88
2018-08-10T15:55:13.121Z,31.33
2018-08-10T15:55:52.144Z,30.17
2018-08-10T15:56:49.744Z,31.71
2018-08-10T16:04:59.574Z,29.67
